createdAt,value
2018-12-24T00:07:05.386Z,21.70
2018-12-24T00:17:11.430Z,21.70
2018-12-24T00:27:17.321Z,21.60
2018-12-24T00:37:23.196Z,21.60
2018-12-24T00:47:29.191Z,21.60
2018-12-24T00:57:35.191Z,21.60
2018-12-24T01:07:41.293Z,21.60
2018-12-24T01:17:47.277Z,21.50
2018-12-24T01:27:53.171Z,21.60
2018-12-24T01:37:59.166Z,21.60
2018-12-24T01:48:05.119Z,21.50
2018-12-24T01:58:11.080Z,21.60
2018-12-24T02:08:17.070Z,21.50
2018-12-24T02:18:23.134Z,21.50
2018-12-24T02:28:29.365Z,21.50
2018-12-24T02:38:35.305Z,21.60
2018-12-24T02:48:41.221Z,21.50
2018-12-24T02:58:47.114Z,21.60
2018-12-24T03:08:53.217Z,21.50
2018-12-24T03:18:59.434Z,21.60
2018-12-24T03:29:05.425Z,21.60
2018-12-24T03:39:11.743Z,21.50
2018-12-24T03:49:17.671Z,21.60
2018-12-24T03:59:23.575Z,21.50
2018-12-24T04:09:29.485Z,21.60
2018-12-24T04:19:35.410Z,21.60
2018-12-24T04:29:41.316Z,21.60
2018-12-24T04:39:47.302Z,21.60
2018-12-24T04:49:53.348Z,21.60
2018-12-24T04:59:59.290Z,21.60
2018-12-24T05:10:06.467Z,21.60
2018-12-24T05:20:12.498Z,21.60
2018-12-24T05:30:18.369Z,21.60
2018-12-24T05:40:24.282Z,21.60
2018-12-24T05:50:30.303Z,21.60
2018-12-24T06:00:36.181Z,21.60
2018-12-24T06:10:42.142Z,21.70
2018-12-24T06:20:48.036Z,21.70
2018-12-24T06:30:53.910Z,21.70
2018-12-24T06:41:02.602Z,21.70
2018-12-24T06:51:08.974Z,21.70
2018-12-24T07:01:14.897Z,21.70
2018-12-24T07:11:20.912Z,21.80
2018-12-24T07:21:26.853Z,21.80
2018-12-24T07:31:32.809Z,21.80
2018-12-24T07:41:38.827Z,21.70
2018-12-24T07:51:44.751Z,21.80
2018-12-24T08:01:50.732Z,21.80
2018-12-24T08:11:56.723Z,21.80
2018-12-24T08:22:02.808Z,21.80
2018-12-24T08:32:08.759Z,21.80
2018-12-24T08:42:14.700Z,21.80
2018-12-24T08:52:20.597Z,21.80
2018-12-24T09:02:26.593Z,21.80
2018-12-24T09:12:32.511Z,21.80
2018-12-24T09:22:39.936Z,21.80
2018-12-24T09:32:45.876Z,21.80
2018-12-24T09:42:51.898Z,21.80
2018-12-24T09:52:57.895Z,21.80
2018-12-24T10:03:31.200Z,21.80
2018-12-24T10:13:37.355Z,21.90
2018-12-24T10:23:43.302Z,21.80
2018-12-24T10:33:49.257Z,21.90
2018-12-24T10:43:55.213Z,21.90
2018-12-24T10:54:01.177Z,21.90
2018-12-24T11:04:07.261Z,21.90
2018-12-24T11:14:13.286Z,21.80
2018-12-24T11:24:19.236Z,21.80
2018-12-24T11:34:25.108Z,21.80
2018-12-24T11:44:31.027Z,21.90
2018-12-24T11:54:37.107Z,21.90
2018-12-24T12:04:43.328Z,21.90
2018-12-24T12:14:49.490Z,21.90
2018-12-24T12:24:55.415Z,21.90
2018-12-24T12:35:01.444Z,21.90
2018-12-24T12:45:07.614Z,21.90
2018-12-24T12:55:13.590Z,21.80
2018-12-24T13:05:19.609Z,21.90
2018-12-24T13:15:25.588Z,21.90
2018-12-24T13:25:31.993Z,21.90
2018-12-24T13:35:37.981Z,21.90
2018-12-24T13:46:24.171Z,21.90
2018-12-24T13:56:29.622Z,21.90
2018-12-24T14:06:36.388Z,21.90
2018-12-24T14:16:41.870Z,21.90
2018-12-24T14:26:47.458Z,21.90
2018-12-24T14:36:53.231Z,21.60
2018-12-24T14:46:58.660Z,21.70
2018-12-24T14:57:04.786Z,21.80
2018-12-24T15:07:10.220Z,21.90
2018-12-24T15:17:15.653Z,22.10
2018-12-24T15:27:21.442Z,22.20
2018-12-24T15:37:27.381Z,22.30
2018-12-24T15:47:33.037Z,22.30
2018-12-24T15:57:40.003Z,22.40
2018-12-24T16:07:46.089Z,22.60
2018-12-24T16:17:51.496Z,22.70
2018-12-24T16:27:57.335Z,22.80
2018-12-24T16:38:03.178Z,22.80
2018-12-24T16:48:08.861Z,22.90
2018-12-24T16:58:14.364Z,22.90
2018-12-24T17:08:19.974Z,23.00
2018-12-24T17:18:25.421Z,23.00
2018-12-24T17:28:31.908Z,23.10
2018-12-24T17:38:37.552Z,23.20
2018-12-24T17:48:43.713Z,23.30
2018-12-24T17:58:49.542Z,23.30
2018-12-24T18:08:55.347Z,23.30
2018-12-24T18:19:01.039Z,23.30
2018-12-24T18:29:06.596Z,23.20
2018-12-24T18:39:12.130Z,23.30
2018-12-24T18:49:17.575Z,23.20
2018-12-24T18:59:24.094Z,23.10
2018-12-24T19:09:29.766Z,22.90
2018-12-24T19:19:35.469Z,22.90
2018-12-24T19:29:40.872Z,22.80
2018-12-24T19:39:46.276Z,22.80
2018-12-24T19:49:51.756Z,22.80
2018-12-24T19:59:57.198Z,22.70
2018-12-24T20:10:02.586Z,22.70
2018-12-24T20:20:08.086Z,22.70
2018-12-24T20:30:13.549Z,22.70
2018-12-24T20:40:18.971Z,22.60
2018-12-24T20:50:25.759Z,22.60
2018-12-24T21:00:31.162Z,22.60
2018-12-24T21:10:37.056Z,22.60
2018-12-24T21:20:42.531Z,22.50
2018-12-24T21:30:47.967Z,22.50
2018-12-24T21:40:53.874Z,22.50
2018-12-24T21:50:59.259Z,22.50
2018-12-24T22:01:04.866Z,22.50
2018-12-24T22:11:10.351Z,22.50
2018-12-24T22:21:16.403Z,22.50
2018-12-24T22:31:21.775Z,22.40
2018-12-24T22:41:29.056Z,22.40
2018-12-24T22:51:34.386Z,22.40
2018-12-24T23:01:39.920Z,22.40
2018-12-24T23:11:45.422Z,22.30
2018-12-24T23:21:50.847Z,22.30
2018-12-24T23:31:57.396Z,22.30
2018-12-24T23:42:02.798Z,22.40
2018-12-24T23:52:08.333Z,22.40
